Flight Track Log - Related Links

Times and Time Zones

All times are in EDT time to prevent confusion due to time zone crossing. See the RAX1022 flight status page for this flight to view local times or setup timezone preferences in your user account.

Time Position Orientation Groundspeed Altitude Reporting Facility
EDT Latitude Longitude Course Direction KTS MPH feet Rate Location/Type
Thu 12:58:24 AM 45.8053 -108.6556 259° West 129 148 7,700  Level Salt Lake Center
Thu 12:59:25 AM 45.8039 -108.7075 268° West 131 151 9,200 1,131 Climbing Salt Lake Center
Thu 01:00:26 AM 45.7997 -108.7606 264° West 137 158 10,000 397 Climbing Salt Lake Center
Thu 01:01:26 AM 45.7917 -108.8419 262° West 191 220 10,000  Level Salt Lake Center
Thu 01:02:00 AM 45.7834 -109.0572 270° West  Level FlightAware Approximate
Thu 01:02:27 AM 45.7861 -108.9194 264° West 197 227 10,000  Level Salt Lake Center
Thu 01:03:28 AM 45.7833 -108.9928 267° West 189 217 10,000  Level Salt Lake Center
Thu 01:04:29 AM 45.7806 -109.0650 267° West 185 213 10,000  Level Salt Lake Center
Thu 01:05:30 AM 45.7786 -109.1458 268° West 191 220 10,000  Level Salt Lake Center
Thu 01:06:31 AM 45.7764 -109.2200 268° West 190 219 10,000  Level Salt Lake Center
Thu 01:07:32 AM 45.7686 -109.2939 261° West 191 220 10,000  Level Salt Lake Center
Thu 01:08:32 AM 45.7633 -109.3733 265° West 189 217 10,000  Level Salt Lake Center
Thu 01:09:33 AM 45.7617 -109.4481 268° West 191 220 10,000  Level Salt Lake Center
Thu 01:10:34 AM 45.7600 -109.5236 268° West 193 222 10,000  Level Salt Lake Center
Thu 01:11:35 AM 45.7592 -109.5975 269° West 190 219 10,000  Level Salt Lake Center
Thu 01:12:36 AM 45.7547 -109.6775 265° West 191 220 10,000  Level Salt Lake Center
Thu 01:13:37 AM 45.7481 -109.7517 263° West 191 220 10,000 -50 Level Salt Lake Center
Thu 01:14:37 AM 45.7453 -109.8256 267° West 190 219 9,900 -50 Descending Salt Lake Center
Thu 01:15:38 AM 45.7422 -109.8969 267° West 189 217 9,900  Level Salt Lake Center
Thu 01:16:39 AM 45.7397 -109.9786 268° West 186 214 9,900  Level Salt Lake Center
Thu 01:17:40 AM 45.7364 -110.0483 266° West 185 213 9,900 50 Level Salt Lake Center
Thu 01:18:40 AM 45.7342 -110.1267 268° West 185 213 10,000 50 Climbing Salt Lake Center
Thu 01:19:41 AM 45.7242 -110.2014 259° West 184 212 10,000 -49 Level Salt Lake Center
Thu 01:20:42 AM 45.7172 -110.2733 262° West 186 214 9,900 -49 Descending Salt Lake Center
Thu 01:21:43 AM 45.7125 -110.3442 265° West 188 216 9,900 347 Level Salt Lake Center
Thu 01:22:43 AM 45.7069 -110.4219 264° West 188 216 10,600 893 Climbing Salt Lake Center
Thu 01:23:44 AM 45.7014 -110.4819 262° West 183 211 11,700 689 Climbing Salt Lake Center
Thu 01:24:45 AM 45.6928 -110.5619 261° West 178 205 12,000 148 Climbing Salt Lake Center
Thu 01:25:46 AM 45.6878 -110.6222 263° West 177 204 12,000 -50 Level Salt Lake Center
Thu 01:26:46 AM 45.6786 -110.6997 260° West 179 206 11,900 -50 Descending Salt Lake Center
Thu 01:27:47 AM 45.6642 -110.7792 255° West 182 209 11,900 49 Level Salt Lake Center
Thu 01:28:48 AM 45.6564 -110.8519 261° West 183 211 12,000  Climbing Salt Lake Center
Thu 01:29:48 AM 45.6581 -110.9247 272° West 187 215 11,900  Descending Salt Lake Center
Thu 01:30:48 AM 45.6897 -110.9819 308° West 187 215 12,000  Climbing Salt Lake Center
Thu 01:31:49 AM 45.7211 -111.0394 308° West 184 212 11,900 -50 Descending Salt Lake Center
Thu 01:32:49 AM 45.7514 -111.0969 307° West 183 211 11,900  Level Salt Lake Center
Thu 01:33:50 AM 45.7764 -111.1564 301° West 182 209 11,900 49 Level Salt Lake Center
Thu 01:34:51 AM 45.7942 -111.2186 292° West 167 192 12,000  Climbing Salt Lake Center
Thu 01:35:51 AM 45.7981 -111.2914 274° West 180 207 11,900 -50 Descending Salt Lake Center
Thu 01:36:52 AM 45.8028 -111.3819 274° West 185 213 11,900  Level Salt Lake Center
Thu 01:37:52 AM 45.8103 -111.4594 278° West 191 220 11,900  Level Salt Lake Center
Thu 01:38:53 AM 45.8147 -111.5342 275° West 191 220 11,900  Level Salt Lake Center
Thu 01:39:53 AM 45.8217 -111.6078 278° West 189 217 11,900  Level Salt Lake Center
Thu 01:40:54 AM 45.8269 -111.6850 276° West 191 220 11,900  Level Salt Lake Center
Thu 01:41:55 AM 45.8311 -111.7622 274° West 194 223 11,900 -50 Level Salt Lake Center
Thu 01:42:55 AM 45.8383 -111.8364 278° West 191 220 11,800 50 Descending Salt Lake Center
Thu 01:43:56 AM 45.8447 -111.9133 277° West 193 222 12,000 99 Climbing Salt Lake Center
Thu 01:44:56 AM 45.8489 -111.9906 274° West 194 223 12,000 -50 Level Salt Lake Center
Thu 01:45:57 AM 45.8572 -112.0689 279° West 196 226 11,900 -49 Descending Salt Lake Center
Thu 01:46:58 AM 45.8628 -112.1536 275° West 200 230 11,900  Level Salt Lake Center
Thu 01:47:58 AM 45.8133 -112.1969 211° Southwest 217 250 11,900 99 Level Salt Lake Center
Thu 01:48:59 AM 45.7592 -112.2358 207° Southwest 218 251 12,100  Climbing Salt Lake Center
Thu 01:49:59 AM 45.7031 -112.2703 203° Southwest 219 252 11,900 -99 Descending Salt Lake Center
Thu 01:51:00 AM 45.6492 -112.3083 206° Southwest 218 251 11,900 -50 Level Salt Lake Center
Thu 01:52:00 AM 45.5919 -112.3436 203° Southwest 215 247 11,800  Descending Salt Lake Center
Thu 01:53:01 AM 45.5358 -112.3681 197° South 218 251 11,900 49 Climbing Salt Lake Center
Thu 01:54:02 AM 45.4756 -112.4044 203° Southwest 215 247 11,900 50 Level Salt Lake Center
Thu 01:55:02 AM 45.4250 -112.4386 205° Southwest 211 243 12,000  Climbing Salt Lake Center
Thu 01:56:03 AM 45.3744 -112.4764 208° Southwest 212 244 11,900 -50 Descending Salt Lake Center
Thu 01:57:03 AM 45.3169 -112.5189 207° Southwest 213 245 11,900  Level Salt Lake Center
Thu 01:58:04 AM 45.2603 -112.5364 192° South 217 250 11,900  Level Salt Lake Center
Thu 01:59:04 AM 45.2414 -112.6086 250° West 212 244 11,900  Level Salt Lake Center
Thu 02:00:05 AM 45.2283 -112.6947 258° West 204 235 11,900  Level Salt Lake Center
Thu 02:01:05 AM 45.2119 -112.7711 253° West 203 234 11,900 66 Level Salt Lake Center
Thu 02:03:06 AM 45.1867 -112.9283 257° West 200 230 12,100  Climbing Salt Lake Center
Thu 02:04:43 AM 45.1722 -113.0514 261° West 230 265 11,900 -20 Descending Salt Lake Center
Thu 02:06:00 AM 45.1553 -113.1536 257° West  Level FlightAware Approximate
Thu 02:12:59 AM 45.0703 -113.7325 306° West 216 249 11,900  Level Salt Lake Center
Thu 02:13:00 AM 45.0686 -113.7122 259° West  Level FlightAware Approximate
Thu 02:14:00 AM 45.0575 -113.7923 259° West  Level FlightAware Approximate
Thu 02:14:00 AM 45.0581 -113.8261 260° West 218 251 11,900  Level Salt Lake Center
Thu 02:15:00 AM 45.0463 -113.8724 259° West  Level FlightAware Approximate
Thu 02:15:00 AM 45.0503 -113.9056 262° West 216 249 11,800  Level Salt Lake Center
Thu 02:16:00 AM 45.0351 -113.9524 259° West  Level FlightAware Approximate
Thu 02:16:01 AM 45.0369 -113.9914 258° West 215 247 11,900  Level Salt Lake Center
Thu 02:17:00 AM 45.0239 -114.0324 259° West  Level FlightAware Approximate
Thu 02:18:00 AM 45.0290 -114.1073 306° West  Level FlightAware Approximate
Thu 02:18:02 AM 45.0425 -114.1394 273° West 186 214 12,000  Level Salt Lake Center
Thu 02:19:02 AM 45.0736 -114.2031 305° West 202 232 12,000 -50 Level Salt Lake Center
Thu 02:20:03 AM 45.1069 -114.2753 303° West 203 234 11,900  Descending Salt Lake Center
Thu 02:22:00 AM 45.1742 -114.4034 307° West  Level FlightAware Approximate
Thu 02:24:05 AM 45.2461 -114.5308 307° West 215 247 12,000  Level Salt Lake Center
Thu 02:25:05 AM 45.2778 -114.5933 306° West 206 237 12,000  Level Salt Lake Center
Thu 02:26:06 AM 45.3119 -114.6519 310° West 203 234 12,000  Level Salt Lake Center
Thu 02:27:06 AM 45.3481 -114.7250 305° West 203 234 12,000  Level Salt Lake Center
Thu 02:28:07 AM 45.3786 -114.7836 307° West 203 234 12,000  Level Salt Lake Center
Thu 02:29:00 AM 45.4144 -114.8658 307° West  Level FlightAware Approximate
Thu 02:29:07 AM 45.4133 -114.8589 303° West 204 235 12,000  Level Salt Lake Center
Thu 02:30:08 AM 45.4472 -114.9233 307° West 203 234 11,900 -50 Descending Salt Lake Center
Thu 02:31:08 AM 45.4778 -114.9861 305° West 202 232 11,900  Level Salt Lake Center
Thu 02:32:09 AM 45.5086 -115.0489 305° West 202 232 11,900  Level Salt Lake Center
Thu 02:33:21 AM 45.5511 -115.1369 305° West 203 234 11,900  Level Salt Lake Center
Thu 02:34:16 AM 45.5822 -115.1972 306° West 204 235 11,900  Level Seattle Center
Thu 02:35:16 AM 45.6114 -115.2614 303° West 204 235 11,900 -50 Level Seattle Center
Thu 02:36:17 AM 45.6306 -115.3325 291° West 209 241 11,800  Descending Seattle Center
Thu 02:37:17 AM 45.6322 -115.4231 272° West 208 239 11,900  Climbing Seattle Center
Thu 02:38:17 AM 45.6319 -115.4836 270° West 201 231 11,800  Descending Seattle Center
Thu 02:39:18 AM 45.6344 -115.5664 273° West 206 237 11,900 50 Climbing Seattle Center
Thu 02:40:18 AM 45.6361 -115.6592 272° West 212 244 11,900  Level Seattle Center
Thu 02:41:18 AM 45.6389 -115.7522 272° West 213 245 11,900  Level Seattle Center
Thu 02:42:19 AM 45.6381 -115.8325 269° West 209 241 11,900  Level Seattle Center
Thu 02:43:19 AM 45.6358 -115.9150 268° West 207 238 11,900 50 Level Seattle Center
Thu 02:44:19 AM 45.6392 -115.9978 273° West 206 237 12,000  Climbing Seattle Center
Thu 02:45:20 AM 45.6386 -116.0767 269° West 206 237 11,900 -50 Descending Seattle Center
Thu 02:46:20 AM 45.6417 -116.1536 273° West 207 238 11,900  Level Seattle Center
Thu 02:47:20 AM 45.6453 -116.2322 274° West 206 237 11,900  Level Seattle Center
Thu 02:48:20 AM 45.6506 -116.3233 275° West 209 241 11,900  Level Seattle Center
Thu 02:49:21 AM 45.6528 -116.4053 272° West 207 238 11,900  Level Seattle Center
Thu 02:50:21 AM 45.6569 -116.4875 274° West 208 239 11,900  Level Seattle Center
Thu 02:51:21 AM 45.6561 -116.5692 269° West 208 239 11,900  Level Seattle Center
Thu 02:52:22 AM 45.6558 -116.6506 270° West 206 237 11,900  Level Seattle Center
Thu 02:53:22 AM 45.6575 -116.7289 272° West 206 237 11,900  Level Seattle Center
Thu 02:54:22 AM 45.6583 -116.8200 271° West 206 237 11,900  Level Seattle Center
Thu 02:55:22 AM 45.6603 -116.8956 272° West 203 234 11,900 -149 Level Seattle Center
Thu 02:56:23 AM 45.6600 -116.9750 270° West 205 236 11,600 -397 Descending Seattle Center
Thu 02:57:23 AM 45.6597 -117.0558 270° West 209 241 11,100 -500 Descending Seattle Center
Thu 02:58:23 AM 45.6594 -117.1494 270° West 217 250 10,600 -450 Descending Seattle Center
Thu 02:59:23 AM 45.6622 -117.2406 273° West 223 257 10,200 -347 Descending Seattle Center
Thu 03:00:24 AM 45.6636 -117.3244 271° West 222 255 9,900 -149 Descending Seattle Center
Thu 03:01:24 AM 45.6656 -117.4178 272° West 216 249 9,900 50 Level Seattle Center
Thu 03:02:24 AM 45.6675 -117.4939 272° West 206 237 10,000 50 Climbing Seattle Center
Thu 03:03:24 AM 45.6678 -117.5703 270° West 203 234 10,000  Level Seattle Center
Thu 03:04:25 AM 45.6664 -117.6472 269° West 203 234 10,000  Level Seattle Center
Thu 03:05:25 AM 45.6639 -117.7294 268° West 203 234 10,000 -50 Level Seattle Center
Thu 03:06:25 AM 45.6644 -117.8103 271° West 203 234 9,900 -50 Descending Seattle Center
Thu 03:07:25 AM 45.6653 -117.8817 271° West 203 234 9,900  Level Seattle Center
Thu 03:08:25 AM 45.6619 -117.9778 267° West 203 234 9,900  Level Seattle Center
Thu 03:09:26 AM 45.6575 -118.0578 265° West 203 234 9,900 50 Level Seattle Center
Thu 03:10:26 AM 45.6522 -118.1381 265° West 203 234 10,000 50 Climbing Seattle Center
Thu 03:11:26 AM 45.6461 -118.2167 264° West 201 231 10,000  Level Seattle Center
Thu 03:12:26 AM 45.6408 -118.2972 265° West 202 232 10,000  Level Seattle Center
Thu 03:13:26 AM 45.6342 -118.3778 263° West 204 235 10,000  Level Seattle Center
Thu 03:14:26 AM 45.6217 -118.4575 257° West 206 237 10,000  Level Seattle Center
Thu 03:15:39 AM 45.6072 -118.5483 257° West 201 231 10,000  Level Seattle Center
Thu 03:16:40 AM 45.6069 -118.6286 270° West 200 230 10,000  Level Seattle Center
Thu 03:17:40 AM 45.6064 -118.7108 269° West 203 234 10,000  Level Seattle Center
Thu 03:18:40 AM 45.6011 -118.7914 265° West 206 237 10,000  Level Seattle Center
Thu 03:19:40 AM 45.5961 -118.8714 265° West 204 235 10,000  Level Seattle Center
Thu 03:20:40 AM 45.5878 -118.9511 262° West 204 235 10,000  Level Seattle Center
Thu 03:21:40 AM 45.5828 -119.0325 265° West 204 235 10,000  Level Seattle Center
Thu 03:22:41 AM 45.5772 -119.1139 264° West 207 238 10,000  Level Seattle Center
Thu 03:23:41 AM 45.5736 -119.1942 266° West 205 236 10,000  Level Seattle Center
Thu 03:24:41 AM 45.5694 -119.2733 266° West 203 234 10,000  Level Seattle Center
Thu 03:25:41 AM 45.5628 -119.3514 263° West 202 232 10,000  Level Seattle Center
Thu 03:26:41 AM 45.5553 -119.4300 262° West 201 231 10,000  Level Seattle Center
Thu 03:27:42 AM 45.5472 -119.5092 262° West 202 232 10,000  Level Seattle Center
Thu 03:28:42 AM 45.5406 -119.5867 263° West 201 231 10,000 -50 Level Seattle Center
Thu 03:29:42 AM 45.5394 -119.6656 269° West 199 229 9,900 -50 Descending Seattle Center
Thu 03:30:42 AM 45.5328 -119.7422 263° West 198 228 9,900  Level Seattle Center
Thu 03:31:42 AM 45.5286 -119.8217 266° West 199 229 9,900  Level Seattle Center
Thu 03:32:42 AM 45.5314 -119.9006 273° West 199 229 9,900 50 Level Seattle Center
Thu 03:33:42 AM 45.5314 -119.9806 270° West 202 232 10,000  Climbing Seattle Center
Thu 03:34:43 AM 45.5275 -120.0600 266° West 203 234 9,900 -50 Descending Seattle Center
Thu 03:35:43 AM 45.5319 -120.1392 275° West 202 232 9,900 50 Level Seattle Center
Thu 03:36:43 AM 45.5394 -120.2178 278° West 202 232 10,000  Climbing Seattle Center
Thu 03:37:43 AM 45.5542 -120.2925 286° West 202 232 9,900 -50 Descending Seattle Center
Thu 03:38:43 AM 45.5561 -120.3708 272° West 197 227 9,900  Level Seattle Center
Thu 03:39:43 AM 45.5564 -120.4522 270° West 198 228 9,900  Level Seattle Center
Thu 03:40:43 AM 45.5564 -120.5347 270° West 203 234 9,900  Level Seattle Center
Thu 03:41:44 AM 45.5564 -120.6147 270° West 205 236 9,900  Level Seattle Center
Thu 03:42:44 AM 45.5558 -120.6950 269° West 204 235 9,900  Level Seattle Center
Thu 03:43:44 AM 45.5567 -120.7753 271° West 204 235 9,900  Level Seattle Center
Thu 03:44:44 AM 45.5569 -120.8553 270° West 204 235 9,900  Level Seattle Center
Thu 03:45:44 AM 45.5581 -120.9367 271° West 204 235 9,900  Level Seattle Center
Thu 03:46:44 AM 45.5575 -121.0189 269° West 205 236 9,900  Level Seattle Center
Thu 03:47:44 AM 45.5622 -121.0994 275° West 206 237 9,900  Level Seattle Center
Thu 03:48:44 AM 45.5653 -121.1817 273° West 207 238 9,900 -50 Level Seattle Center
Thu 03:49:44 AM 45.5689 -121.2653 274° West 209 241 9,800 50 Descending Seattle Center
Thu 03:50:45 AM 45.5778 -121.3469 279° West 210 242 10,000 60 Climbing Seattle Center
Thu 03:51:24 AM 45.5828 -121.4117 276° West 206 237 9,900  Descending Seattle Center
Thu 03:51:45 AM 45.5819 -121.4247 265° West 204 235 10,000  Climbing Seattle Center
Thu 03:52:06 AM 45.5844 -121.4700 275° West 205 236 9,900  Descending Seattle Center
Thu 03:52:45 AM 45.5817 -121.5069 264° West 205 236 10,000  Climbing Seattle Center
Thu 03:53:07 AM 45.5819 -121.5514 271° West 209 241 9,900 -100 Descending Seattle Center
Thu 03:53:45 AM 45.5811 -121.5903 268° West 209 241 9,900 -300 Level Seattle Center
Thu 03:54:07 AM 45.5778 -121.6339 264° West 211 243 9,600 -500 Descending Seattle Center
Thu 03:54:45 AM 45.5756 -121.6753 266° West 212 244 9,400 -590 Descending Seattle Center
Thu 03:55:08 AM 45.5769 -121.7239 272° West 224 258 9,000 -1,000 Descending Seattle Center
Thu 03:55:45 AM 45.5764 -121.7803 269° West 220 253 8,400 -885 Descending Seattle Center
Thu 03:56:09 AM 45.5750 -121.8178 267° West 226 260 8,100 -800 Descending Seattle Center
Thu 03:56:45 AM 45.5736 -121.8711 268° West 225 259 7,600 -900 Descending Seattle Center
Thu 03:57:09 AM 45.5722 -121.9086 267° West 229 264 7,200 -700 Descending Seattle Center
Thu 03:57:45 AM 45.5706 -121.9439 266° West 228 262 6,900 -787 Descending Seattle Center
Thu 03:58:10 AM 45.5675 -122.0003 266° West 228 262 6,400 -900 Descending Seattle Center
Thu 03:58:45 AM 45.5700 -122.0367 276° West 232 267 6,000 -909 Descending Seattle Center
Thu 03:59:16 AM 45.5631 -122.0947 260° West 229 264 5,400 -689 Descending Seattle Center
Thu 03:59:46 AM 45.5636 -122.1261 271° West 229 264 5,300 -179 Descending Seattle Center
Thu 04:00:23 AM 45.5553 -122.1939 260° West 216 249 5,200 -600 Descending Seattle Center
Thu 04:00:46 AM 45.5550 -122.2269 269° West 218 251 4,700 -1,180 Descending Seattle Center
Thu 04:01:24 AM 45.5469 -122.2808 258° West 215 247 4,000 -900 Descending Seattle Center
Thu 04:01:46 AM 45.5469 -122.3125 270° West 218 251 3,800 -300 Descending Seattle Center
Thu 04:02:24 AM 45.5408 -122.3572 259° West 198 228 3,700 -400 Descending Seattle Center
Thu 04:02:46 AM 45.5406 -122.3839 269° West 192 221 3,400 -1,082 Descending Seattle Center
Thu 04:03:25 AM 45.5372 -122.4236 263° West 160 184 2,600 -1,000 Descending Seattle Center
Thu 04:03:46 AM 45.5386 -122.4458 275° West 167 192 2,400 -1,100 Descending Seattle Center
Thu 04:04:25 AM 45.5486 -122.4806 292° West 151 174 1,500 -1,200 Descending Seattle Center
Thu 04:04:46 AM 45.5578 -122.4992 305° West 161 185 1,200 -764 Descending Seattle Center
Thu 04:05:20 AM 45.5658 -122.5231 296° West 127 146 800 -700 Descending Seattle Center
Thu 04:05:46 AM 45.5769 -122.5431 308° West 146 168 500 -590 Descending Seattle Center
Thu 04:06:21 AM 45.5806 -122.5633 284° West 111 128 200 -514 Descending Seattle Center

Login

Don't have an account? Register now (free) for customized features, flight alerts, and more!